Time;durP1;ratioP1;P1;durP2;ratioP2;P2;SDS_P1;SDS_P2;PMS_P1;PMS_P2;Temp;Humidity;BMP_temperature;BMP_pressure;BME280_temperature;BME280_humidity;BME280_pressure;Samples;Min_cycle;Max_cycle;Signal;HPM_P1;HPM_P2
2023/08/01 00:01:48;;;;;;;0.00;0.00;;;15.70;100.00;;;;;;5104139;28;20144;-79
2023/08/01 00:04:16;;;;;;;0.00;0.00;;;15.60;100.00;;;;;;5104271;28;20488;-79
2023/08/01 00:06:43;;;;;;;0.00;0.00;;;15.70;100.00;;;;;;5102843;28;20052;-78
2023/08/01 00:09:09;;;;;;;0.00;0.00;;;15.60;100.00;;;;;;5096728;28;20127;-79
2023/08/01 00:11:36;;;;;;;0.00;0.00;;;15.60;100.00;;;;;;5093699;28;20079;-79
2023/08/01 00:14:03;;;;;;;0.00;0.00;;;15.60;100.00;;;;;;5100280;28;20101;-79
2023/08/01 00:16:32;;;;;;;0.00;0.00;;;15.60;100.00;;;;;;5100266;28;20441;-79
2023/08/01 00:18:59;;;;;;;0.00;0.00;;;15.60;100.00;;;;;;5108302;28;20101;-80
2023/08/01 00:21:26;;;;;;;0.00;0.00;;;15.60;100.00;;;;;;5103494;28;20150;-79
2023/08/01 00:23:53;;;;;;;0.00;0.00;;;15.60;100.00;;;;;;5096577;28;20101;-79
2023/08/01 00:26:19;;;;;;;0.00;0.00;;;15.60;100.00;;;;;;5108313;28;20829;-79
2023/08/01 00:28:46;;;;;;;0.00;0.00;;;15.60;100.00;;;;;;5110806;28;20134;-79
2023/08/01 00:31:13;;;;;;;0.00;0.00;;;15.60;100.00;;;;;;5108562;28;20065;-79
2023/08/01 00:33:40;;;;;;;0.00;0.00;;;15.60;100.00;;;;;;5100995;28;20043;-79
2023/08/01 00:36:09;;;;;;;0.00;0.00;;;15.60;100.00;;;;;;5111454;28;20130;-79
2023/08/01 00:38:36;;;;;;;0.00;0.00;;;15.60;100.00;;;;;;5106758;28;20039;-79
2023/08/01 00:41:03;;;;;;;0.00;0.00;;;15.60;100.00;;;;;;5103124;28;20060;-79
2023/08/01 00:43:30;;;;;;;0.00;0.00;;;15.60;100.00;;;;;;5095829;28;20052;-80
2023/08/01 00:46:03;;;;;;;0.00;0.00;;;15.60;100.00;;;;;;5107043;28;20131;-80
2023/08/01 00:48:31;;;;;;;0.00;0.00;;;15.60;100.00;;;;;;5105939;28;20047;-80
2023/08/01 00:51:00;;;;;;;0.00;0.00;;;15.50;100.00;;;;;;5110519;28;20079;-80
2023/08/01 00:53:28;;;;;;;0.00;0.00;;;15.50;100.00;;;;;;5105756;28;20040;-80
2023/08/01 00:55:56;;;;;;;0.00;0.00;;;15.50;100.00;;;;;;5107168;28;20048;-80
2023/08/01 00:58:23;;;;;;;0.00;0.00;;;15.50;100.00;;;;;;5098476;28;20815;-80
2023/08/01 01:00:50;;;;;;;0.00;0.00;;;15.50;100.00;;;;;;5106795;28;20486;-80
2023/08/01 01:03:18;;;;;;;0.00;0.00;;;15.50;100.00;;;;;;5099344;28;20043;-80
2023/08/01 01:05:56;;;;;;;0.00;0.00;;;15.50;100.00;;;;;;5109628;28;20052;-80
2023/08/01 01:08:23;;;;;;;0.00;0.00;;;15.50;100.00;;;;;;5104038;28;20039;-80
2023/08/01 01:10:50;;;;;;;0.00;0.00;;;15.50;100.00;;;;;;5099076;28;20427;-82
2023/08/01 01:13:16;;;;;;;0.00;0.00;;;15.50;100.00;;;;;;5108944;28;20039;-81
2023/08/01 01:15:43;;;;;;;0.00;0.00;;;15.60;100.00;;;;;;5104529;28;20094;-81
2023/08/01 01:18:10;;;;;;;0.00;0.00;;;15.60;100.00;;;;;;5099332;28;20096;-81
2023/08/01 01:20:37;;;;;;;0.00;0.00;;;15.60;100.00;;;;;;5104572;28;20040;-81
2023/08/01 01:23:06;;;;;;;0.00;0.00;;;15.60;100.00;;;;;;5097851;28;20105;-81
2023/08/01 01:25:33;;;;;;;0.00;0.00;;;15.60;100.00;;;;;;5097031;28;20154;-81
2023/08/01 01:28:03;;;;;;;0.00;0.00;;;15.60;100.00;;;;;;5108989;28;20055;-81
2023/08/01 01:30:33;;;;;;;0.00;0.00;;;15.70;100.00;;;;;;5106389;28;20541;-81
2023/08/01 01:33:04;;;;;;;0.00;0.00;;;15.70;100.00;;;;;;5097483;28;20135;-81
2023/08/01 01:35:34;;;;;;;0.00;0.00;;;15.70;100.00;;;;;;5105053;28;20044;-82
2023/08/01 01:38:05;;;;;;;0.00;0.00;;;15.70;100.00;;;;;;5107399;28;20167;-81
2023/08/01 01:40:33;;;;;;;0.00;0.00;;;15.60;100.00;;;;;;5092526;28;20077;-82
2023/08/01 01:43:01;;;;;;;0.00;0.00;;;15.60;100.00;;;;;;5106981;28;20052;-81
2023/08/01 01:45:28;;;;;;;0.00;0.00;;;15.60;100.00;;;;;;5096617;28;20044;-82
2023/08/01 01:47:55;;;;;;;0.00;0.00;;;15.60;100.00;;;;;;5109491;28;20055;-81
2023/08/01 01:50:22;;;;;;;0.00;0.00;;;15.60;100.00;;;;;;5110510;28;20062;-82
2023/08/01 01:52:49;;;;;;;0.00;0.00;;;15.60;100.00;;;;;;5109290;28;20054;-81
2023/08/01 01:55:16;;;;;;;0.00;0.00;;;15.60;100.00;;;;;;5110575;28;20050;-82
2023/08/01 01:57:43;;;;;;;0.00;0.00;;;15.60;100.00;;;;;;5106893;28;20047;-81
2023/08/01 02:00:10;;;;;;;0.00;0.00;;;15.60;100.00;;;;;;5110417;28;20656;-82
2023/08/01 02:02:37;;;;;;;0.00;0.00;;;15.60;100.00;;;;;;5101256;28;20051;-81
2023/08/01 02:05:04;;;;;;;0.00;0.00;;;15.60;100.00;;;;;;5099393;28;20142;-82
2023/08/01 02:07:33;;;;;;;0.00;0.00;;;15.60;100.00;;;;;;5093596;28;20135;-81
2023/08/01 02:10:01;;;;;;;0.00;0.00;;;15.60;100.00;;;;;;5098266;28;20052;-81
2023/08/01 02:12:31;;;;;;;0.00;0.00;;;15.60;100.00;;;;;;5109996;28;20400;-82
2023/08/01 02:14:58;;;;;;;0.00;0.00;;;15.60;100.00;;;;;;5106638;28;20048;-82
2023/08/01 02:17:25;;;;;;;0.00;0.00;;;15.60;100.00;;;;;;5105114;28;20054;-82
2023/08/01 02:19:52;;;;;;;0.00;0.00;;;15.60;100.00;;;;;;5103005;28;20046;-82
2023/08/01 02:22:20;;;;;;;0.00;0.00;;;15.70;100.00;;;;;;5099944;28;20484;-82
2023/08/01 02:24:46;;;;;;;0.00;0.00;;;15.70;100.00;;;;;;5095395;28;20140;-81
2023/08/01 02:27:13;;;;;;;0.00;0.00;;;15.70;100.00;;;;;;5104451;28;20048;-81
2023/08/01 02:29:40;;;;;;;0.00;0.00;;;15.70;100.00;;;;;;5106276;28;20048;-81
2023/08/01 02:32:07;;;;;;;0.00;0.00;;;15.70;100.00;;;;;;5103418;28;20087;-82
2023/08/01 02:34:34;;;;;;;0.00;0.00;;;15.70;100.00;;;;;;5104325;28;20070;-82
2023/08/01 02:37:01;;;;;;;0.00;0.00;;;15.70;100.00;;;;;;5100907;28;20724;-82
2023/08/01 02:39:28;;;;;;;0.00;0.00;;;15.70;100.00;;;;;;5097447;28;20123;-82
2023/08/01 02:41:55;;;;;;;0.00;0.00;;;15.70;100.00;;;;;;5102832;28;20082;-82
2023/08/01 02:44:22;;;;;;;0.00;0.00;;;15.80;100.00;;;;;;5111322;28;20120;-82
2023/08/01 02:46:48;;;;;;;0.00;0.00;;;15.80;100.00;;;;;;5104180;28;20108;-81
2023/08/01 02:49:15;;;;;;;0.00;0.00;;;15.80;100.00;;;;;;5109174;28;20047;-82
2023/08/01 02:51:42;;;;;;;0.00;0.00;;;15.80;100.00;;;;;;5106704;28;20040;-81
2023/08/01 02:54:09;;;;;;;0.00;0.00;;;15.80;100.00;;;;;;5103775;28;20071;-82
2023/08/01 02:56:40;;;;;;;0.00;0.00;;;15.80;100.00;;;;;;5096686;28;20040;-81
2023/08/01 02:59:08;;;;;;;0.00;0.00;;;15.80;100.00;;;;;;5094550;28;20069;-81
2023/08/01 03:01:36;;;;;;;0.00;0.00;;;15.80;100.00;;;;;;5091377;28;20079;-82
2023/08/01 03:04:04;;;;;;;0.00;0.00;;;15.80;100.00;;;;;;5107886;28;20043;-82
2023/08/01 03:06:34;;;;;;;0.00;0.00;;;15.80;100.00;;;;;;5103852;28;20046;-82
2023/08/01 03:09:00;;;;;;;0.00;0.00;;;15.80;100.00;;;;;;5108064;28;20149;-82
2023/08/01 03:11:27;;;;;;;0.00;0.00;;;15.80;100.00;;;;;;5088416;28;20087;-82
2023/08/01 03:13:54;;;;;;;0.00;0.00;;;15.80;100.00;;;;;;5099769;28;20054;-82
2023/08/01 03:16:21;;;;;;;0.00;0.00;;;15.80;100.00;;;;;;5095555;28;20052;-82
2023/08/01 03:18:48;;;;;;;0.00;0.00;;;15.80;100.00;;;;;;5105537;28;20058;-82
2023/08/01 03:21:16;;;;;;;0.00;0.00;;;15.80;100.00;;;;;;5109113;28;20043;-82
2023/08/01 03:23:43;;;;;;;0.00;0.00;;;15.80;100.00;;;;;;5093273;28;20051;-82
2023/08/01 03:26:09;;;;;;;0.00;0.00;;;15.80;100.00;;;;;;5098484;28;20058;-81
2023/08/01 03:28:36;;;;;;;0.00;0.00;;;15.90;100.00;;;;;;5104755;28;20085;-82
2023/08/01 03:31:03;;;;;;;0.00;0.00;;;15.80;100.00;;;;;;5103559;28;20067;-82
2023/08/01 03:33:32;;;;;;;0.00;0.00;;;15.90;100.00;;;;;;5103548;28;20044;-82
2023/08/01 03:35:59;;;;;;;0.00;0.00;;;15.90;100.00;;;;;;5108635;28;20055;-83
2023/08/01 03:38:26;;;;;;;0.00;0.00;;;15.90;100.00;;;;;;5107146;28;20152;-82
2023/08/01 03:40:52;;;;;;;0.00;0.00;;;15.90;100.00;;;;;;5104953;28;20047;-82
2023/08/01 03:43:23;;;;;;;0.00;0.00;;;15.90;100.00;;;;;;5096678;28;20076;-82
2023/08/01 03:45:51;;;;;;;0.00;0.00;;;15.90;100.00;;;;;;5099513;28;20056;-83
2023/08/01 03:48:18;;;;;;;0.00;0.00;;;15.90;100.00;;;;;;5108449;28;20711;-83
2023/08/01 03:50:45;;;;;;;0.00;0.00;;;15.90;100.00;;;;;;5103984;28;20055;-83
2023/08/01 03:53:12;;;;;;;0.00;0.00;;;15.90;100.00;;;;;;5098538;28;20043;-83
2023/08/01 03:55:39;;;;;;;0.00;0.00;;;15.90;100.00;;;;;;5106060;28;20047;-82
2023/08/01 03:58:06;;;;;;;0.00;0.00;;;15.90;100.00;;;;;;5107368;28;20102;-83
2023/08/01 04:00:33;;;;;;;0.00;0.00;;;16.00;100.00;;;;;;5106047;28;20051;-82
2023/08/01 04:03:01;;;;;;;0.00;0.00;;;15.90;100.00;;;;;;5099687;28;20055;-82
2023/08/01 04:05:28;;;;;;;0.00;0.00;;;15.90;100.00;;;;;;5103041;28;20088;-81
2023/08/01 04:07:56;;;;;;;0.00;0.00;;;15.90;100.00;;;;;;5110682;28;20051;-81
2023/08/01 04:10:23;;;;;;;0.00;0.00;;;15.90;100.00;;;;;;5098982;28;20791;-82
2023/08/01 04:12:50;;;;;;;0.00;0.00;;;15.90;100.00;;;;;;5112398;28;20107;-83
2023/08/01 04:15:17;;;;;;;0.00;0.00;;;15.90;100.00;;;;;;5111116;28;20079;-84
2023/08/01 04:17:44;;;;;;;0.00;0.00;;;15.90;100.00;;;;;;5111372;28;20155;-83
2023/08/01 04:20:12;;;;;;;0.00;0.00;;;15.90;100.00;;;;;;5108791;28;20051;-83
2023/08/01 04:22:39;;;;;;;0.00;0.00;;;15.90;100.00;;;;;;5103409;28;20086;-83
2023/08/01 04:25:06;;;;;;;0.00;0.00;;;15.90;100.00;;;;;;5112156;28;20054;-83
2023/08/01 04:27:33;;;;;;;0.00;0.00;;;15.90;100.00;;;;;;5104244;28;20131;-83
2023/08/01 04:30:00;;;;;;;0.00;0.00;;;15.90;100.00;;;;;;5105237;28;20052;-83
2023/08/01 04:32:27;;;;;;;0.00;0.00;;;16.00;100.00;;;;;;5096114;28;20720;-83
2023/08/01 04:34:54;;;;;;;0.00;0.00;;;16.00;100.00;;;;;;5098261;28;20043;-83
2023/08/01 04:37:23;;;;;;;0.00;0.00;;;16.00;100.00;;;;;;5100675;28;20053;-83
2023/08/01 04:39:50;;;;;;;0.00;0.00;;;16.00;100.00;;;;;;5107563;28;20044;-82
2023/08/01 04:42:16;;;;;;;0.00;0.00;;;16.00;100.00;;;;;;5099809;28;20051;-83
2023/08/01 04:44:43;;;;;;;0.00;0.00;;;16.00;100.00;;;;;;5102905;28;20074;-82
2023/08/01 04:47:10;;;;;;;0.00;0.00;;;16.00;100.00;;;;;;5098337;28;20073;-83
2023/08/01 04:49:38;;;;;;;0.00;0.00;;;16.00;100.00;;;;;;5094372;28;20050;-83
2023/08/01 04:52:05;;;;;;;0.00;0.00;;;16.00;100.00;;;;;;5102717;28;20448;-84
2023/08/01 04:54:34;;;;;;;0.00;0.00;;;16.00;100.00;;;;;;5104522;28;20113;-84
2023/08/01 04:57:01;;;;;;;0.00;0.00;;;16.10;100.00;;;;;;5101569;28;20119;-82
2023/08/01 04:59:28;;;;;;;0.00;0.00;;;16.10;100.00;;;;;;5110088;28;20120;-84
2023/08/01 05:01:55;;;;;;;0.00;0.00;;;16.10;100.00;;;;;;5100505;28;20048;-83
2023/08/01 05:04:22;;;;;;;0.00;0.00;;;16.10;100.00;;;;;;5105488;28;20602;-83
2023/08/01 05:06:49;;;;;;;0.00;0.00;;;16.00;100.00;;;;;;5103584;28;20083;-82
2023/08/01 05:09:16;;;;;;;0.00;0.00;;;16.10;100.00;;;;;;5111335;28;20044;-83
2023/08/01 05:11:42;;;;;;;0.00;0.00;;;16.10;100.00;;;;;;5112555;28;20075;-83
2023/08/01 05:14:09;;;;;;;0.00;0.00;;;16.10;100.00;;;;;;5108511;28;20054;-83
2023/08/01 05:16:36;;;;;;;0.00;0.00;;;16.10;100.00;;;;;;5107361;28;20130;-83
2023/08/01 05:19:03;;;;;;;0.00;0.00;;;16.10;100.00;;;;;;5107942;28;20069;-83
2023/08/01 05:21:30;;;;;;;0.00;0.00;;;16.10;100.00;;;;;;5112285;28;20044;-83
2023/08/01 05:23:57;;;;;;;0.00;0.00;;;16.10;100.00;;;;;;5106396;28;20053;-83
2023/08/01 05:26:24;;;;;;;0.00;0.00;;;16.10;100.00;;;;;;5097594;28;20051;-84
2023/08/01 05:28:51;;;;;;;0.00;0.00;;;16.10;100.00;;;;;;5109978;28;20108;-83
2023/08/01 05:31:18;;;;;;;0.00;0.00;;;16.10;100.00;;;;;;5101559;28;20159;-83
2023/08/01 05:33:45;;;;;;;0.00;0.00;;;16.20;100.00;;;;;;5100566;28;20059;-83
2023/08/01 05:36:12;;;;;;;0.00;0.00;;;16.10;100.00;;;;;;5106123;28;20128;-83
2023/08/01 05:38:39;;;;;;;0.00;0.00;;;16.10;100.00;;;;;;5109215;28;20457;-84
2023/08/01 05:41:06;;;;;;;0.00;0.00;;;16.10;100.00;;;;;;5107460;28;20770;-84
2023/08/01 05:43:33;;;;;;;0.00;0.00;;;16.10;100.00;;;;;;5098816;28;20047;-83
2023/08/01 05:46:00;;;;;;;0.00;0.00;;;16.10;100.00;;;;;;5101285;28;20559;-83
2023/08/01 05:48:27;;;;;;;0.00;0.00;;;16.10;100.00;;;;;;5103454;28;20593;-84
2023/08/01 05:50:55;;;;;;;0.00;0.00;;;16.10;100.00;;;;;;5097913;28;20044;-85
2023/08/01 05:53:22;;;;;;;0.00;0.00;;;16.10;100.00;;;;;;5105914;28;20095;-83
2023/08/01 05:55:49;;;;;;;0.00;0.00;;;16.20;100.00;;;;;;5099114;28;20055;-83
2023/08/01 05:58:16;;;;;;;0.00;0.00;;;16.20;100.00;;;;;;5106277;28;20503;-83
2023/08/01 06:00:43;;;;;;;0.00;0.00;;;16.30;100.00;;;;;;5099203;28;20076;-84
2023/08/01 06:03:10;;;;;;;0.00;0.00;;;16.30;100.00;;;;;;5102969;28;20134;-84
2023/08/01 06:05:37;;;;;;;0.00;0.00;;;16.30;100.00;;;;;;5110404;28;20047;-83
2023/08/01 06:08:07;;;;;;;0.00;0.00;;;16.30;100.00;;;;;;5109418;28;20067;-84
2023/08/01 06:10:35;;;;;;;0.00;0.00;;;16.40;100.00;;;;;;5100897;28;20664;-84
2023/08/01 06:13:01;;;;;;;0.00;0.00;;;16.50;100.00;;;;;;5109974;28;20058;-84
2023/08/01 06:15:28;;;;;;;0.00;0.00;;;16.50;100.00;;;;;;5105655;28;20559;-83
2023/08/01 06:17:55;;;;;;;0.00;0.00;;;16.50;100.00;;;;;;5101346;28;20113;-83
2023/08/01 06:20:22;;;;;;;0.00;0.00;;;16.50;100.00;;;;;;5102615;28;20100;-83
2023/08/01 06:22:49;;;;;;;0.00;0.00;;;16.50;100.00;;;;;;5106697;28;20096;-83
2023/08/01 06:25:16;;;;;;;0.00;0.00;;;16.60;100.00;;;;;;5095019;28;20127;-83
2023/08/01 06:27:46;;;;;;;0.00;0.00;;;16.60;100.00;;;;;;5100839;28;20127;-83
2023/08/01 06:30:13;;;;;;;0.00;0.00;;;16.60;100.00;;;;;;5100809;28;20051;-82
2023/08/01 06:32:40;;;;;;;0.00;0.00;;;16.60;100.00;;;;;;5110618;28;20701;-84
2023/08/01 06:35:13;;;;;;;0.00;0.00;;;16.70;100.00;;;;;;5068392;27;20523;-83
2023/08/01 06:37:40;;;;;;;0.00;0.00;;;16.70;100.00;;;;;;5066846;28;20044;-83
2023/08/01 06:40:08;;;;;;;0.00;0.00;;;16.60;100.00;;;;;;5063569;28;20454;-82
2023/08/01 06:42:35;;;;;;;0.00;0.00;;;16.60;100.00;;;;;;5062440;28;20477;-82
2023/08/01 06:45:02;;;;;;;0.00;0.00;;;16.50;100.00;;;;;;5064465;28;20048;-82
2023/08/01 06:47:29;;;;;;;0.00;0.00;;;16.50;100.00;;;;;;5066469;28;20083;-83
2023/08/01 06:49:56;;;;;;;0.00;0.00;;;16.60;100.00;;;;;;5065387;28;20060;-82
2023/08/01 06:52:22;;;;;;;0.00;0.00;;;16.70;100.00;;;;;;5066742;28;20080;-82
2023/08/01 06:54:49;;;;;;;0.00;0.00;;;16.80;100.00;;;;;;5066163;28;20048;-83
2023/08/01 06:57:16;;;;;;;0.00;0.00;;;16.80;100.00;;;;;;5077134;28;20079;-83
2023/08/01 06:59:43;;;;;;;0.00;0.00;;;16.80;100.00;;;;;;5073966;28;20047;-83
2023/08/01 07:02:10;;;;;;;0.00;0.00;;;16.80;100.00;;;;;;5065979;28;20079;-83
2023/08/01 07:04:38;;;;;;;0.00;0.00;;;16.90;100.00;;;;;;5061271;28;20119;-83
2023/08/01 07:07:05;;;;;;;0.00;0.00;;;17.00;100.00;;;;;;5057594;28;20059;-83
2023/08/01 07:09:33;;;;;;;0.00;0.00;;;17.00;100.00;;;;;;5064489;28;20048;-82
2023/08/01 07:12:00;;;;;;;0.00;0.00;;;16.90;100.00;;;;;;5069539;28;20060;-81
2023/08/01 07:14:27;;;;;;;0.00;0.00;;;16.90;100.00;;;;;;5068984;28;20049;-82
2023/08/01 07:16:54;;;;;;;0.00;0.00;;;16.90;100.00;;;;;;5063462;28;20329;-82
2023/08/01 07:19:21;;;;;;;0.00;0.00;;;16.90;100.00;;;;;;5066515;28;20068;-82
2023/08/01 07:21:49;;;;;;;0.00;0.00;;;16.90;100.00;;;;;;5064448;28;20048;-82
2023/08/01 07:24:16;;;;;;;0.00;0.00;;;16.90;100.00;;;;;;5060215;28;20130;-82
2023/08/01 07:26:43;;;;;;;0.00;0.00;;;16.90;100.00;;;;;;5069966;28;20110;-82
2023/08/01 07:29:11;;;;;;;0.00;0.00;;;17.00;100.00;;;;;;5063944;28;20056;-82
2023/08/01 07:31:38;;;;;;;0.00;0.00;;;16.90;100.00;;;;;;5074008;28;20676;-83
2023/08/01 07:34:06;;;;;;;0.00;0.00;;;17.00;100.00;;;;;;5063405;28;20053;-82
2023/08/01 07:36:33;;;;;;;0.00;0.00;;;17.10;100.00;;;;;;5073957;28;20800;-82
2023/08/01 07:39:00;;;;;;;0.00;0.00;;;17.20;100.00;;;;;;5074114;28;20037;-82
2023/08/01 07:41:27;;;;;;;0.00;0.00;;;17.20;100.00;;;;;;5064146;28;20110;-82
2023/08/01 07:43:54;;;;;;;0.00;0.00;;;17.30;100.00;;;;;;5065531;28;20045;-82
2023/08/01 07:46:20;;;;;;;0.00;0.00;;;17.40;100.00;;;;;;5060633;28;20114;-82
2023/08/01 07:48:48;;;;;;;0.00;0.00;;;17.50;100.00;;;;;;5052223;28;20080;-82
2023/08/01 07:51:15;;;;;;;0.00;0.00;;;17.50;100.00;;;;;;5057429;28;20052;-82
2023/08/01 07:53:42;;;;;;;0.00;0.00;;;17.70;100.00;;;;;;5050409;28;20079;-82
2023/08/01 07:56:09;;;;;;;0.00;0.00;;;17.70;100.00;;;;;;5064105;28;20142;-82
2023/08/01 07:58:36;;;;;;;0.00;0.00;;;17.80;100.00;;;;;;5057759;28;20127;-82
2023/08/01 08:01:04;;;;;;;0.00;0.00;;;17.70;100.00;;;;;;5056513;28;20139;-83
2023/08/01 08:03:31;;;;;;;0.00;0.00;;;17.70;100.00;;;;;;5052940;28;20166;-83
2023/08/01 08:05:59;;;;;;;0.00;0.00;;;17.80;100.00;;;;;;5053093;28;20080;-82
2023/08/01 08:08:26;;;;;;;0.00;0.00;;;17.80;100.00;;;;;;5060007;28;20121;-83
2023/08/01 08:10:53;;;;;;;0.00;0.00;;;17.90;100.00;;;;;;5052989;28;20441;-82
2023/08/01 08:13:20;;;;;;;0.00;0.00;;;17.80;100.00;;;;;;5050921;28;20801;-82
2023/08/01 08:15:47;;;;;;;0.00;0.00;;;17.70;100.00;;;;;;5063958;28;20114;-82
2023/08/01 08:18:14;;;;;;;0.00;0.00;;;17.70;100.00;;;;;;5064897;28;20102;-82
2023/08/01 08:20:45;;;;;;;0.00;0.00;;;17.70;100.00;;;;;;5060614;28;20045;-83
2023/08/01 08:23:15;;;;;;;0.00;0.00;;;17.60;100.00;;;;;;5051510;28;20124;-82
2023/08/01 08:25:47;;;;;;;0.00;0.00;;;17.50;100.00;;;;;;5052395;28;20053;-81
2023/08/01 08:28:14;;;;;;;0.00;0.00;;;17.40;100.00;;;;;;5052993;28;20068;-82
2023/08/01 08:30:41;;;;;;;0.00;0.00;;;17.30;100.00;;;;;;5056716;28;20042;-80
2023/08/01 08:33:08;;;;;;;0.00;0.00;;;17.20;100.00;;;;;;5063384;28;20125;-81
2023/08/01 08:35:37;;;;;;;0.00;0.00;;;17.10;100.00;;;;;;5050813;28;20041;-80
2023/08/01 08:38:04;;;;;;;0.00;0.00;;;17.10;100.00;;;;;;5052005;28;20737;-81
2023/08/01 08:40:40;;;;;;;0.00;0.00;;;17.00;100.00;;;;;;5050770;28;20516;-81
2023/08/01 08:43:08;;;;;;;0.00;0.00;;;17.00;100.00;;;;;;5058660;28;20121;-80
2023/08/01 08:45:39;;;;;;;0.00;0.00;;;17.00;100.00;;;;;;5056416;28;20201;-81
2023/08/01 08:48:12;;;;;;;0.00;0.00;;;17.00;100.00;;;;;;5050284;28;20303;-80
2023/08/01 08:50:40;;;;;;;0.00;0.00;;;17.00;100.00;;;;;;5050590;28;20511;-80
2023/08/01 08:53:12;;;;;;;0.00;0.00;;;17.10;100.00;;;;;;5051104;28;20060;-82
2023/08/01 08:55:40;;;;;;;0.00;0.00;;;17.20;100.00;;;;;;5052071;28;20075;-80
2023/08/01 08:58:08;;;;;;;0.00;0.00;;;17.30;100.00;;;;;;5047859;28;20045;-80
2023/08/01 09:00:37;;;;;;;0.00;0.00;;;17.60;100.00;;;;;;5051223;28;20586;-80
2023/08/01 09:03:05;;;;;;;0.00;0.00;;;17.90;100.00;;;;;;5051598;28;20099;-80
2023/08/01 09:05:40;;;;;;;0.00;0.00;;;18.20;100.00;;;;;;5050227;28;20496;-80
2023/08/01 09:08:17;;;;;;;0.00;0.00;;;18.60;100.00;;;;;;5050108;28;20132;-81
2023/08/01 09:10:44;;;;;;;0.00;0.00;;;18.90;100.00;;;;;;5049772;28;20052;-81
2023/08/01 09:13:11;;;;;;;0.75;0.32;;;19.10;100.00;;;;;;5055588;28;20056;-80
2023/08/01 09:15:41;;;;;;;0.00;0.00;;;18.80;100.00;;;;;;5050748;28;20899;-80
2023/08/01 09:18:08;;;;;;;0.00;0.00;;;18.60;100.00;;;;;;5049482;28;20128;-80
2023/08/01 09:20:45;;;;;;;0.00;0.00;;;18.50;100.00;;;;;;5058929;28;20041;-80
2023/08/01 09:23:13;;;;;;;0.00;0.00;;;18.40;100.00;;;;;;5051083;28;20048;-80
2023/08/01 09:25:41;;;;;;;0.00;0.00;;;18.30;100.00;;;;;;5050944;28;20047;-79
2023/08/01 09:28:18;;;;;;;0.00;0.00;;;18.20;100.00;;;;;;5051035;28;20049;-80
2023/08/01 09:30:47;;;;;;;0.00;0.00;;;18.00;99.50;;;;;;5046669;28;20048;-80
2023/08/01 09:33:14;;;;;;;0.00;0.00;;;17.80;99.30;;;;;;5056018;28;20053;-80
2023/08/01 09:35:44;;;;;;;0.00;0.00;;;17.70;100.00;;;;;;5051193;28;20595;-80
2023/08/01 09:38:13;;;;;;;0.00;0.00;;;17.40;100.00;;;;;;5048795;28;20053;-80
2023/08/01 09:40:40;;;;;;;0.00;0.00;;;17.10;99.80;;;;;;5045092;28;20476;-80
2023/08/01 09:43:08;;;;;;;0.00;0.00;;;17.10;100.00;;;;;;5061122;28;20095;-80
2023/08/01 09:45:35;;;;;;;0.00;0.00;;;17.10;100.00;;;;;;5050501;28;20470;-80
2023/08/01 09:48:03;;;;;;;0.00;0.00;;;17.10;100.00;;;;;;5051233;28;20553;-80
2023/08/01 09:50:30;;;;;;;0.00;0.00;;;17.10;100.00;;;;;;5056502;28;20055;-80
2023/08/01 09:53:07;;;;;;;0.00;0.00;;;17.20;100.00;;;;;;5051075;28;20151;-80
2023/08/01 09:55:35;;;;;;;0.00;0.00;;;17.50;100.00;;;;;;5052164;28;20049;-80
2023/08/01 09:58:02;;;;;;;0.00;0.00;;;17.70;100.00;;;;;;5050021;28;20126;-79
2023/08/01 10:00:30;;;;;;;0.00;0.00;;;17.90;100.00;;;;;;5048649;28;20076;-81
2023/08/01 10:03:01;;;;;;;0.00;0.00;;;18.10;100.00;;;;;;5049428;28;20477;-80
2023/08/01 10:05:32;;;;;;;0.55;0.55;;;18.30;99.70;;;;;;5049562;28;20052;-80
2023/08/01 10:08:01;;;;;;;0.00;0.00;;;18.60;99.90;;;;;;5058555;28;20053;-80
2023/08/01 10:10:28;;;;;;;0.00;0.00;;;18.80;99.20;;;;;;5049423;28;20055;-81
2023/08/01 10:12:57;;;;;;;0.00;0.00;;;19.00;98.40;;;;;;5049695;28;20056;-80
2023/08/01 10:15:25;;;;;;;0.00;0.00;;;19.20;98.40;;;;;;5048529;28;20610;-80
2023/08/01 10:17:52;;;;;;;0.00;0.00;;;19.60;100.00;;;;;;5055217;28;20048;-80
2023/08/01 10:20:21;;;;;;;0.00;0.00;;;20.10;95.30;;;;;;5057624;28;20424;-80
2023/08/01 10:22:50;;;;;;;0.00;0.00;;;20.40;91.20;;;;;;5048452;28;20037;-79
2023/08/01 10:25:18;;;;;;;0.00;0.00;;;20.30;90.60;;;;;;5049385;28;20059;-79
2023/08/01 10:27:45;;;;;;;0.00;0.00;;;20.30;95.80;;;;;;5049345;28;20124;-80
2023/08/01 10:30:12;;;;;;;0.00;0.00;;;20.50;91.00;;;;;;5048382;28;20114;-80
2023/08/01 10:32:41;;;;;;;0.00;0.00;;;20.40;89.80;;;;;;5056504;28;20626;-82
2023/08/01 10:35:08;;;;;;;0.00;0.00;;;20.40;88.70;;;;;;5051960;28;20054;-81
2023/08/01 10:37:47;;;;;;;0.00;0.00;;;20.30;90.10;;;;;;5050375;28;20041;-81
2023/08/01 10:40:14;;;;;;;0.00;0.00;;;20.20;89.80;;;;;;5049003;28;20040;-81
2023/08/01 10:42:46;;;;;;;0.00;0.00;;;20.30;89.40;;;;;;5049198;28;20124;-81
2023/08/01 10:45:21;;;;;;;0.00;0.00;;;20.40;87.80;;;;;;5061568;28;20085;-84
2023/08/01 10:47:52;;;;;;;0.43;0.32;;;20.50;85.70;;;;;;5049863;28;20080;-80
2023/08/01 10:50:19;;;;;;;0.00;0.00;;;20.70;86.20;;;;;;5041793;28;20072;-81
2023/08/01 10:52:46;;;;;;;0.00;0.00;;;20.60;84.50;;;;;;5049408;28;20056;-83
2023/08/01 10:55:13;;;;;;;0.60;0.25;;;20.30;84.80;;;;;;5049585;28;20049;-83
2023/08/01 10:57:48;;;;;;;0.00;0.00;;;20.00;87.20;;;;;;5051979;28;20045;-83
2023/08/01 11:00:17;;;;;;;0.00;0.00;;;19.90;87.30;;;;;;5051230;28;20124;-84
2023/08/01 11:02:49;;;;;;;0.00;0.00;;;20.00;86.00;;;;;;5050803;28;20124;-84
2023/08/01 11:05:17;;;;;;;0.00;0.00;;;20.00;87.70;;;;;;5049490;28;20683;-84
2023/08/01 11:07:54;;;;;;;0.00;0.00;;;19.80;85.10;;;;;;5048517;28;20126;-85
2023/08/01 11:10:23;;;;;;;0.00;0.00;;;20.20;90.30;;;;;;5041902;28;20077;-85
2023/08/01 11:12:50;;;;;;;1.23;0.68;;;20.90;87.40;;;;;;5049512;28;20127;-86
2023/08/01 11:15:17;;;;;;;0.00;0.00;;;22.00;84.20;;;;;;5043914;28;20045;-88
2023/08/01 11:17:49;;;;;;;0.00;0.00;;;23.00;82.50;;;;;;5055525;28;20477;-86
2023/08/01 11:20:18;;;;;;;0.00;0.00;;;23.80;78.60;;;;;;5059688;28;20550;-87
2023/08/01 11:22:51;;;;;;;0.00;0.00;;;24.40;74.90;;;;;;5059800;28;20457;-88
2023/08/01 11:25:18;;;;;;;0.00;0.00;;;24.50;70.50;;;;;;5056723;28;20099;-88
2023/08/01 11:27:45;;;;;;;0.05;0.05;;;24.30;72.70;;;;;;5060700;28;20075;-87
2023/08/01 11:30:12;;;;;;;0.00;0.00;;;24.20;70.10;;;;;;5053168;28;20555;-87
2023/08/01 11:32:39;;;;;;;0.00;0.00;;;23.90;71.80;;;;;;5052519;28;20087;-87
2023/08/01 11:35:07;;;;;;;0.00;0.00;;;24.20;71.20;;;;;;5055169;28;20049;-88
2023/08/01 11:37:35;;;;;;;0.00;0.00;;;24.40;71.60;;;;;;5063664;28;20485;-87
2023/08/01 11:40:03;;;;;;;0.10;0.10;;;24.40;72.20;;;;;;5055901;28;20079;-90
2023/08/01 11:42:33;;;;;;;0.00;0.00;;;24.80;70.70;;;;;;5052565;28;20052;-88
2023/08/01 11:45:13;;;;;;;0.00;0.00;;;25.20;69.00;;;;;;5066578;28;20040;-87
2023/08/01 11:47:46;;;;;;;0.10;0.10;;;25.40;66.70;;;;;;5054093;28;20055;-88
2023/08/01 11:50:20;;;;;;;0.00;0.00;;;24.90;69.40;;;;;;5052159;28;20756;-89
2023/08/01 11:52:47;;;;;;;0.10;0.10;;;25.90;70.50;;;;;;5053871;28;20052;-88
2023/08/01 11:55:20;;;;;;;0.00;0.00;;;27.50;63.70;;;;;;5055494;28;20040;-88
2023/08/01 11:57:57;;;;;;;0.00;0.00;;;27.50;60.90;;;;;;5057114;28;20041;-86
2023/08/01 12:00:27;;;;;;;0.00;0.00;;;26.70;58.80;;;;;;5052468;28;20504;-87
2023/08/01 12:03:05;;;;;;;0.00;0.00;;;26.90;61.30;;;;;;5055691;28;20128;-85
2023/08/01 12:05:32;;;;;;;0.10;0.10;;;27.10;61.60;;;;;;5052992;28;20141;-85
2023/08/01 12:08:13;;;;;;;0.00;0.00;;;26.80;60.50;;;;;;5052367;28;20053;-86
2023/08/01 12:10:45;;;;;;;0.00;0.00;;;27.20;60.00;;;;;;5067337;28;20053;-86
2023/08/01 12:13:22;;;;;;;0.00;0.00;;;27.20;62.60;;;;;;5052236;28;20139;-86
2023/08/01 12:15:50;;;;;;;0.10;0.10;;;27.10;55.70;;;;;;5054920;28;20044;-86
2023/08/01 12:18:28;;;;;;;0.00;0.00;;;26.90;63.20;;;;;;5051455;28;20430;-89
2023/08/01 12:21:15;;;;;;;0.00;0.00;;;27.70;59.60;;;;;;5052255;28;20040;-87
2023/08/01 12:23:42;;;;;;;0.10;0.10;;;27.90;59.10;;;;;;5054688;28;20049;-85
2023/08/01 12:26:09;;;;;;;0.10;0.10;;;28.30;57.80;;;;;;5050509;28;20059;-86
2023/08/01 12:28:36;;;;;;;0.00;0.00;;;29.00;56.60;;;;;;5056078;28;20127;-85
2023/08/01 12:31:03;;;;;;;0.10;0.10;;;29.60;52.10;;;;;;5056980;28;20127;-85
2023/08/01 12:33:32;;;;;;;0.00;0.00;;;28.80;55.20;;;;;;5054657;28;20055;-86
2023/08/01 12:36:08;;;;;;;0.00;0.00;;;28.00;54.40;;;;;;5066185;28;20055;-83
2023/08/01 12:38:34;;;;;;;0.00;0.00;;;27.40;56.20;;;;;;5052155;28;20041;-86
2023/08/01 12:41:02;;;;;;;0.00;0.00;;;26.80;61.30;;;;;;5052985;28;20061;-84
2023/08/01 12:43:29;;;;;;;0.00;0.00;;;25.80;55.40;;;;;;5054060;28;20041;-84